Time;durP1;ratioP1;P1;durP2;ratioP2;P2;SDS_P1;SDS_P2;PMS_P1;PMS_P2;Temp;Humidity;BMP_temperature;BMP_pressure;BME280_temperature;BME280_humidity;BME280_pressure;Samples;Min_cycle;Max_cycle;Signal;HPM_P1;HPM_P2
2023/06/09 00:00:11;;;;;;;;;27.33;22.33;;;;;;;;5014317;28;45360;-84
2023/06/09 00:02:37;;;;;;;;;28.67;24.33;;;;;;;;5005691;28;45452;-83
2023/06/09 00:05:03;;;;;;;;;22.00;22.00;;;;;;;;4997785;28;46087;-84
2023/06/09 00:07:29;;;;;;;;;29.00;25.00;;;;;;;;5017560;28;46087;-86
2023/06/09 00:09:55;;;;;;;;;25.33;25.33;;;;;;;;5010004;28;45523;-83
2023/06/09 00:12:20;;;;;;;;;20.33;19.67;;;;;;;;5004205;28;45852;-84
2023/06/09 00:14:46;;;;;;;;;24.33;23.00;;;;;;;;5012727;28;45744;-86
2023/06/09 00:17:14;;;;;;;;;26.67;25.67;;;;;;;;5019338;28;45986;-84
2023/06/09 00:19:41;;;;;;;;;24.67;24.67;;;;;;;;5009523;28;45687;-84
2023/06/09 00:22:13;;;;;;;;;27.00;22.67;;;;;;;;5007131;28;45528;-83
2023/06/09 00:24:39;;;;;;;;;30.33;28.33;;;;;;;;5008625;28;45517;-84
2023/06/09 00:27:06;;;;;;;;;23.33;21.67;;;;;;;;4999726;28;47786;-81
2023/06/09 00:29:31;;;;;;;;;29.33;26.00;;;;;;;;5016426;28;45329;-83
2023/06/09 00:31:56;;;;;;;;;22.67;21.00;;;;;;;;5013660;28;45796;-83
2023/06/09 00:34:21;;;;;;;;;27.67;24.33;;;;;;;;5007798;28;45728;-83
2023/06/09 00:36:47;;;;;;;;;25.00;25.00;;;;;;;;5001644;28;45678;-82
2023/06/09 00:39:12;;;;;;;;;26.33;25.00;;;;;;;;5007621;28;45795;-82
2023/06/09 00:41:38;;;;;;;;;27.33;24.67;;;;;;;;5003843;28;45438;-83
2023/06/09 00:44:04;;;;;;;;;26.00;25.67;;;;;;;;5015079;28;46331;-82
2023/06/09 00:46:30;;;;;;;;;34.33;28.00;;;;;;;;5010937;28;46055;-84
2023/06/09 00:48:55;;;;;;;;;29.33;25.33;;;;;;;;5007227;28;45486;-83
2023/06/09 00:51:21;;;;;;;;;29.00;26.67;;;;;;;;5009711;28;45791;-83
2023/06/09 00:53:46;;;;;;;;;23.00;21.33;;;;;;;;5016894;28;45398;-83
2023/06/09 00:56:12;;;;;;;;;26.00;25.33;;;;;;;;5000461;28;47060;-84
2023/06/09 00:58:38;;;;;;;;;25.67;23.67;;;;;;;;5016572;28;45493;-83
2023/06/09 01:01:04;;;;;;;;;28.00;25.33;;;;;;;;5016447;28;45435;-83
2023/06/09 01:03:32;;;;;;;;;33.33;28.33;;;;;;;;5032961;28;45650;-83
2023/06/09 01:06:09;;;;;;;;;24.00;24.00;;;;;;;;5011092;28;46127;-85
2023/06/09 01:08:37;;;;;;;;;28.33;25.00;;;;;;;;5013680;28;45378;-85
2023/06/09 01:11:06;;;;;;;;;26.00;24.33;;;;;;;;5001845;28;45454;-84
2023/06/09 01:13:39;;;;;;;;;25.33;23.00;;;;;;;;5011585;28;45491;-83
2023/06/09 01:16:08;;;;;;;;;28.33;26.33;;;;;;;;5011075;28;46519;-85
2023/06/09 01:18:35;;;;;;;;;24.00;22.33;;;;;;;;5011778;28;45426;-82
2023/06/09 01:21:14;;;;;;;;;20.33;20.33;;;;;;;;5001862;28;45486;-82
2023/06/09 01:23:58;;;;;;;;;28.67;25.00;;;;;;;;5016872;28;45815;-83
2023/06/09 01:26:25;;;;;;;;;29.67;24.00;;;;;;;;5016061;28;45776;-82
2023/06/09 01:28:50;;;;;;;;;34.00;25.33;;;;;;;;5004274;28;45435;-82
2023/06/09 01:31:17;;;;;;;;;28.00;24.33;;;;;;;;5009503;28;46629;-84
2023/06/09 01:33:43;;;;;;;;;30.67;24.00;;;;;;;;5003891;28;45704;-83
2023/06/09 01:36:09;;;;;;;;;20.67;20.00;;;;;;;;5008767;28;46988;-82
2023/06/09 01:38:35;;;;;;;;;25.33;25.00;;;;;;;;5014825;28;45387;-82
2023/06/09 01:41:00;;;;;;;;;25.67;25.67;;;;;;;;5007022;28;45602;-81
2023/06/09 01:43:26;;;;;;;;;28.00;24.00;;;;;;;;5016689;28;45700;-84
2023/06/09 01:45:51;;;;;;;;;31.00;29.33;;;;;;;;4999454;28;47030;-83
2023/06/09 01:48:29;;;;;;;;;29.33;27.67;;;;;;;;5000262;28;45573;-83
2023/06/09 01:50:55;;;;;;;;;24.67;23.33;;;;;;;;5003177;28;45529;-82
2023/06/09 01:53:28;;;;;;;;;30.67;29.67;;;;;;;;5006150;28;45591;-81
2023/06/09 01:55:58;;;;;;;;;27.33;27.33;;;;;;;;5015328;28;45550;-84
2023/06/09 01:58:25;;;;;;;;;26.33;22.33;;;;;;;;5010364;28;45382;-82
2023/06/09 02:00:52;;;;;;;;;22.33;22.33;;;;;;;;5004991;28;45560;-82
2023/06/09 02:03:20;;;;;;;;;25.67;24.67;;;;;;;;5002281;28;45616;-84
2023/06/09 02:05:46;;;;;;;;;24.67;24.67;;;;;;;;5017768;28;47218;-83
2023/06/09 02:08:12;;;;;;;;;24.33;23.67;;;;;;;;5000513;28;45411;-83
2023/06/09 02:10:37;;;;;;;;;30.67;27.00;;;;;;;;5006772;28;45432;-83
2023/06/09 02:13:21;;;;;;;;;30.33;24.33;;;;;;;;5009905;28;46361;-83
2023/06/09 02:15:46;;;;;;;;;27.00;24.33;;;;;;;;5011230;28;45078;-83
2023/06/09 02:18:12;;;;;;;;;29.67;26.33;;;;;;;;5008462;28;45340;-85
2023/06/09 02:20:42;;;;;;;;;28.33;24.67;;;;;;;;5003953;28;45535;-76
2023/06/09 02:23:07;;;;;;;;;35.67;29.67;;;;;;;;5012590;28;45762;-77
2023/06/09 02:25:33;;;;;;;;;30.00;26.00;;;;;;;;5001688;28;46989;-76
2023/06/09 02:27:58;;;;;;;;;26.00;25.33;;;;;;;;4999461;28;45895;-75
2023/06/09 02:30:24;;;;;;;;;25.33;20.00;;;;;;;;4994968;28;45444;-76
2023/06/09 02:32:49;;;;;;;;;30.33;27.67;;;;;;;;5009456;28;45554;-77
2023/06/09 02:35:14;;;;;;;;;30.33;26.00;;;;;;;;4998901;28;46457;-76
2023/06/09 02:37:41;;;;;;;;;23.67;21.67;;;;;;;;5007950;28;45817;-76
2023/06/09 02:40:08;;;;;;;;;26.00;26.00;;;;;;;;4997488;28;45800;-75
2023/06/09 02:42:33;;;;;;;;;23.67;20.00;;;;;;;;4998813;28;45883;-76
2023/06/09 02:45:00;;;;;;;;;27.00;25.33;;;;;;;;5007680;28;46092;-74
2023/06/09 02:47:25;;;;;;;;;30.33;27.67;;;;;;;;5001699;28;45941;-74
2023/06/09 02:49:51;;;;;;;;;28.00;27.00;;;;;;;;4990658;28;45892;-77
2023/06/09 02:52:16;;;;;;;;;23.67;23.00;;;;;;;;5002900;28;46127;-76
2023/06/09 02:54:43;;;;;;;;;23.00;22.33;;;;;;;;4992510;28;45923;-76
2023/06/09 02:57:08;;;;;;;;;30.33;26.00;;;;;;;;4992120;28;45964;-76
2023/06/09 02:59:34;;;;;;;;;30.00;29.33;;;;;;;;4994345;28;45602;-75
2023/06/09 03:01:59;;;;;;;;;26.67;23.33;;;;;;;;4990789;28;46093;-75
2023/06/09 03:04:24;;;;;;;;;27.67;26.00;;;;;;;;4999594;28;45854;-75
2023/06/09 03:06:50;;;;;;;;;27.00;24.00;;;;;;;;4996463;28;45624;-76
2023/06/09 03:09:15;;;;;;;;;31.00;28.33;;;;;;;;5001592;28;45582;-77
2023/06/09 03:11:41;;;;;;;;;34.33;29.33;;;;;;;;4996195;28;45659;-77
2023/06/09 03:14:07;;;;;;;;;26.00;25.33;;;;;;;;5001348;28;45437;-77
2023/06/09 03:16:32;;;;;;;;;31.67;28.00;;;;;;;;4992957;28;45782;-76
2023/06/09 03:18:57;;;;;;;;;30.33;26.67;;;;;;;;4998079;28;45869;-76
2023/06/09 03:21:24;;;;;;;;;24.33;22.33;;;;;;;;4997810;28;45923;-76
2023/06/09 03:23:50;;;;;;;;;26.67;25.00;;;;;;;;4994727;28;46202;-76
2023/06/09 03:26:15;;;;;;;;;24.33;24.33;;;;;;;;5001300;28;45823;-75
2023/06/09 03:28:40;;;;;;;;;31.00;26.00;;;;;;;;5001563;28;45711;-75
2023/06/09 03:31:06;;;;;;;;;30.00;24.33;;;;;;;;5007839;28;45843;-77
2023/06/09 03:33:31;;;;;;;;;23.67;21.00;;;;;;;;5001523;28;46119;-76
2023/06/09 03:35:57;;;;;;;;;25.00;24.33;;;;;;;;4992750;28;45446;-76
2023/06/09 03:38:22;;;;;;;;;29.67;28.33;;;;;;;;4996573;28;45551;-75
2023/06/09 03:40:47;;;;;;;;;29.67;28.33;;;;;;;;5003241;28;45421;-77
2023/06/09 03:43:12;;;;;;;;;24.67;23.33;;;;;;;;4999742;28;46000;-75
2023/06/09 03:45:38;;;;;;;;;17.00;14.00;;;;;;;;5004868;28;45797;-76
2023/06/09 03:48:05;;;;;;;;;29.67;28.00;;;;;;;;4999523;28;45879;-75
2023/06/09 03:50:30;;;;;;;;;24.00;24.00;;;;;;;;5002696;28;45492;-77
2023/06/09 03:52:55;;;;;;;;;32.33;29.00;;;;;;;;4992793;28;45743;-77
2023/06/09 03:55:22;;;;;;;;;29.33;27.67;;;;;;;;4998477;28;45893;-76
2023/06/09 03:57:48;;;;;;;;;26.67;23.33;;;;;;;;5000930;28;45720;-76
2023/06/09 04:00:15;;;;;;;;;34.00;27.67;;;;;;;;5003323;28;45756;-76
2023/06/09 04:02:40;;;;;;;;;33.00;29.00;;;;;;;;5003137;28;45608;-76
2023/06/09 04:05:05;;;;;;;;;25.67;24.00;;;;;;;;4994964;28;45819;-77
2023/06/09 04:07:30;;;;;;;;;28.67;25.00;;;;;;;;4999472;28;45776;-76
2023/06/09 04:09:56;;;;;;;;;28.33;26.00;;;;;;;;5004097;28;45387;-76
2023/06/09 04:12:21;;;;;;;;;33.67;30.00;;;;;;;;4993935;28;46309;-77
2023/06/09 04:14:46;;;;;;;;;63.67;51.67;;;;;;;;4993294;28;45807;-77
2023/06/09 04:17:11;;;;;;;;;33.33;32.33;;;;;;;;5000451;28;45521;-83
2023/06/09 04:19:37;;;;;;;;;35.00;28.00;;;;;;;;4994772;28;45515;-82
2023/06/09 04:22:04;;;;;;;;;31.33;27.33;;;;;;;;5007438;28;47565;-83
2023/06/09 04:24:30;;;;;;;;;32.00;27.67;;;;;;;;4993874;28;45948;-82
2023/06/09 04:26:55;;;;;;;;;19.67;18.33;;;;;;;;4993412;28;45852;-82
2023/06/09 04:29:22;;;;;;;;;19.67;19.67;;;;;;;;4999392;28;45794;-82
2023/06/09 04:31:48;;;;;;;;;29.67;25.33;;;;;;;;5002091;28;46249;-81
2023/06/09 04:34:15;;;;;;;;;27.67;25.67;;;;;;;;5005293;28;45809;-81
2023/06/09 04:36:41;;;;;;;;;21.33;20.67;;;;;;;;5001537;28;45848;-85
2023/06/09 04:39:07;;;;;;;;;26.33;25.33;;;;;;;;5008010;28;45868;-82
2023/06/09 04:41:33;;;;;;;;;28.33;25.67;;;;;;;;5004887;28;45903;-85
2023/06/09 04:44:03;;;;;;;;;20.33;19.33;;;;;;;;5008173;28;45741;-83
2023/06/09 04:46:29;;;;;;;;;28.00;26.67;;;;;;;;5003144;28;45627;-83
2023/06/09 04:48:54;;;;;;;;;26.00;24.00;;;;;;;;5002495;28;46510;-82
2023/06/09 04:51:24;;;;;;;;;27.00;25.00;;;;;;;;5008584;28;45884;-81
2023/06/09 04:53:49;;;;;;;;;24.67;22.00;;;;;;;;4998900;28;45787;-82
2023/06/09 04:56:16;;;;;;;;;24.67;24.33;;;;;;;;5000515;28;46517;-83
2023/06/09 04:58:42;;;;;;;;;25.33;22.67;;;;;;;;5006186;28;45307;-82
2023/06/09 05:01:07;;;;;;;;;21.00;20.67;;;;;;;;5003146;28;48001;-82
2023/06/09 05:03:33;;;;;;;;;29.67;28.00;;;;;;;;4999889;28;45885;-84
2023/06/09 05:05:59;;;;;;;;;22.00;19.33;;;;;;;;5007344;28;45810;-85
2023/06/09 05:08:25;;;;;;;;;30.67;25.33;;;;;;;;5002788;28;46313;-89
2023/06/09 05:10:52;;;;;;;;;23.00;22.33;;;;;;;;4998638;28;46264;-87
2023/06/09 05:13:18;;;;;;;;;24.67;20.67;;;;;;;;5001350;28;45789;-85
2023/06/09 05:15:43;;;;;;;;;24.00;23.00;;;;;;;;4999401;28;45757;-79
2023/06/09 05:18:08;;;;;;;;;27.33;24.00;;;;;;;;5003203;28;45803;-77
2023/06/09 05:20:34;;;;;;;;;20.00;19.00;;;;;;;;4995547;28;46041;-79
2023/06/09 05:22:59;;;;;;;;;27.67;23.67;;;;;;;;4994647;28;45828;-80
2023/06/09 05:25:25;;;;;;;;;21.67;17.33;;;;;;;;4998687;28;46276;-81
2023/06/09 05:27:50;;;;;;;;;22.00;20.67;;;;;;;;4992467;28;45432;-80
2023/06/09 05:30:16;;;;;;;;;19.33;17.33;;;;;;;;4995537;28;46071;-81
2023/06/09 05:32:41;;;;;;;;;26.67;24.67;;;;;;;;5000539;28;45858;-81
2023/06/09 05:35:07;;;;;;;;;23.33;23.33;;;;;;;;4998354;28;45464;-80
2023/06/09 05:37:32;;;;;;;;;26.00;22.00;;;;;;;;4998714;28;45813;-78
2023/06/09 05:39:57;;;;;;;;;24.67;20.67;;;;;;;;5001109;28;47792;-80
2023/06/09 05:42:23;;;;;;;;;23.00;21.67;;;;;;;;4992135;28;45642;-81
2023/06/09 05:44:48;;;;;;;;;20.67;20.67;;;;;;;;5006668;28;45601;-80
2023/06/09 05:47:14;;;;;;;;;24.67;24.67;;;;;;;;4994962;28;45774;-84
2023/06/09 05:49:39;;;;;;;;;14.00;14.00;;;;;;;;4996237;28;45984;-82
2023/06/09 05:52:04;;;;;;;;;22.33;21.33;;;;;;;;5004694;28;45704;-80
2023/06/09 05:54:30;;;;;;;;;24.67;21.67;;;;;;;;4997189;28;46072;-81
2023/06/09 05:56:56;;;;;;;;;24.00;16.33;;;;;;;;5001689;28;45967;-82
2023/06/09 05:59:23;;;;;;;;;24.00;22.67;;;;;;;;4996884;28;45883;-83
2023/06/09 06:08:22;;;;;;;;;23.67;20.67;;;;;;;;5012942;28;45455;-83
2023/06/09 06:10:47;;;;;;;;;21.67;20.00;;;;;;;;4999546;28;47035;-81
2023/06/09 06:25:59;;;;;;;;;23.67;19.33;;;;;;;;4956756;22;45643;-70
2023/06/09 06:28:24;;;;;;;;;19.00;19.00;;;;;;;;4973091;28;45780;-69
2023/06/09 06:30:50;;;;;;;;;18.33;16.67;;;;;;;;4972905;28;46034;-69
2023/06/09 06:33:15;;;;;;;;;19.00;18.33;;;;;;;;4975618;28;47136;-69
2023/06/09 06:35:40;;;;;;;;;27.67;24.33;;;;;;;;4973366;28;45410;-69
2023/06/09 06:38:06;;;;;;;;;24.00;22.33;;;;;;;;4975105;28;45778;-73
2023/06/09 06:40:32;;;;;;;;;21.00;19.00;;;;;;;;4971967;28;46882;-72
2023/06/09 06:42:57;;;;;;;;;20.67;18.33;;;;;;;;4969944;28;48272;-72
2023/06/09 06:45:23;;;;;;;;;18.33;17.00;;;;;;;;4981763;28;45879;-74
2023/06/09 06:47:49;;;;;;;;;22.67;21.67;;;;;;;;4981845;28;45382;-75
2023/06/09 06:50:14;;;;;;;;;22.67;21.00;;;;;;;;4986798;28;45665;-79
2023/06/09 06:52:40;;;;;;;;;20.67;20.00;;;;;;;;4981617;28;45626;-73
2023/06/09 06:55:07;;;;;;;;;21.33;21.33;;;;;;;;4989497;28;45688;-73
2023/06/09 06:57:33;;;;;;;;;20.67;19.67;;;;;;;;4961645;28;45801;-74
2023/06/09 06:59:58;;;;;;;;;22.00;19.00;;;;;;;;4987068;28;45512;-72
2023/06/09 07:02:24;;;;;;;;;19.00;19.00;;;;;;;;4971308;28;46313;-74
2023/06/09 07:04:50;;;;;;;;;25.00;24.00;;;;;;;;4972341;28;45848;-75
2023/06/09 07:07:16;;;;;;;;;19.00;19.00;;;;;;;;4974304;28;45870;-78
2023/06/09 07:09:41;;;;;;;;;23.00;20.67;;;;;;;;4972931;28;45752;-78
2023/06/09 07:12:07;;;;;;;;;18.67;16.67;;;;;;;;4975905;28;46186;-77
2023/06/09 07:14:33;;;;;;;;;19.67;16.67;;;;;;;;4973908;28;45517;-78
2023/06/09 07:16:58;;;;;;;;;18.33;18.33;;;;;;;;4970706;28;45494;-78
2023/06/09 07:19:24;;;;;;;;;18.67;17.67;;;;;;;;4980971;28;45515;-78
2023/06/09 07:21:49;;;;;;;;;17.67;17.00;;;;;;;;4987999;28;45707;-77
2023/06/09 07:24:14;;;;;;;;;18.00;18.00;;;;;;;;4987089;28;45430;-76
2023/06/09 07:26:40;;;;;;;;;17.67;16.33;;;;;;;;4985597;28;45294;-78
2023/06/09 07:29:05;;;;;;;;;15.00;15.00;;;;;;;;4980894;28;45804;-77
2023/06/09 07:31:30;;;;;;;;;18.00;16.67;;;;;;;;4970625;28;45903;-76
2023/06/09 07:33:56;;;;;;;;;20.00;20.00;;;;;;;;4970996;28;45492;-76
2023/06/09 07:36:22;;;;;;;;;17.00;16.33;;;;;;;;4985040;28;45699;-79
2023/06/09 07:38:47;;;;;;;;;19.00;18.67;;;;;;;;4981278;28;45831;-78
2023/06/09 07:41:13;;;;;;;;;14.33;14.33;;;;;;;;4974137;28;46525;-80
2023/06/09 07:43:38;;;;;;;;;18.67;16.67;;;;;;;;4972189;28;45383;-77
2023/06/09 07:46:03;;;;;;;;;18.33;16.67;;;;;;;;4986500;28;45825;-76
2023/06/09 07:48:28;;;;;;;;;21.33;19.67;;;;;;;;4989778;28;45921;-76
2023/06/09 07:50:54;;;;;;;;;19.67;18.00;;;;;;;;4977035;28;46578;-75
2023/06/09 07:53:21;;;;;;;;;17.33;17.33;;;;;;;;4980684;28;45609;-75
2023/06/09 07:55:46;;;;;;;;;19.00;18.00;;;;;;;;4976958;28;45801;-75
2023/06/09 07:58:11;;;;;;;;;21.67;18.67;;;;;;;;4962897;28;45930;-74
2023/06/09 08:00:37;;;;;;;;;19.33;18.33;;;;;;;;4974343;28;45794;-75
2023/06/09 08:03:03;;;;;;;;;19.00;17.33;;;;;;;;4982844;28;45794;-73
2023/06/09 08:05:29;;;;;;;;;17.00;17.00;;;;;;;;4979763;28;45494;-74
2023/06/09 08:07:55;;;;;;;;;19.00;19.00;;;;;;;;4975947;28;45391;-76
2023/06/09 08:10:20;;;;;;;;;14.33;13.33;;;;;;;;4976059;28;46240;-75
2023/06/09 08:12:45;;;;;;;;;17.33;15.00;;;;;;;;4972150;28;45333;-76
2023/06/09 08:15:11;;;;;;;;;17.00;17.00;;;;;;;;4969426;28;45368;-75
2023/06/09 08:17:36;;;;;;;;;20.33;19.33;;;;;;;;4978622;28;45698;-74
2023/06/09 08:20:03;;;;;;;;;19.33;16.67;;;;;;;;4986229;28;45627;-75
2023/06/09 08:22:29;;;;;;;;;17.33;17.00;;;;;;;;4979217;28;45504;-74
2023/06/09 08:24:55;;;;;;;;;15.00;13.67;;;;;;;;4985808;28;45669;-76
2023/06/09 08:27:20;;;;;;;;;20.00;18.33;;;;;;;;4989614;28;45797;-74
2023/06/09 08:29:46;;;;;;;;;17.33;15.00;;;;;;;;4985914;28;47924;-74
2023/06/09 08:32:11;;;;;;;;;17.00;16.33;;;;;;;;4976690;28;45669;-76
2023/06/09 08:34:36;;;;;;;;;12.67;12.67;;;;;;;;4975310;28;45393;-76
2023/06/09 08:37:03;;;;;;;;;19.67;18.00;;;;;;;;4987960;28;45454;-75
2023/06/09 08:39:28;;;;;;;;;21.00;19.00;;;;;;;;4988178;28;46202;-76
2023/06/09 08:41:56;;;;;;;;;21.00;21.00;;;;;;;;4980528;28;45778;-76
2023/06/09 08:44:24;;;;;;;;;16.00;15.33;;;;;;;;4970817;28;45691;-74
2023/06/09 08:46:51;;;;;;;;;15.67;15.00;;;;;;;;4966764;28;45369;-74
2023/06/09 08:49:17;;;;;;;;;22.67;19.67;;;;;;;;4965917;28;47123;-75
2023/06/09 08:51:43;;;;;;;;;20.67;18.33;;;;;;;;4970797;28;45861;-76
2023/06/09 08:54:13;;;;;;;;;18.00;18.00;;;;;;;;4976296;28;45671;-75
2023/06/09 08:56:38;;;;;;;;;19.00;17.67;;;;;;;;4987713;28;47417;-74
2023/06/09 08:59:04;;;;;;;;;17.67;17.67;;;;;;;;4966830;28;46492;-75
2023/06/09 09:01:31;;;;;;;;;18.00;18.00;;;;;;;;4978763;28;46008;-75
2023/06/09 09:03:56;;;;;;;;;20.00;19.00;;;;;;;;4973371;28;45365;-74
2023/06/09 09:06:21;;;;;;;;;15.67;13.33;;;;;;;;4968044;28;45332;-73
2023/06/09 09:08:47;;;;;;;;;18.67;18.67;;;;;;;;4970944;28;45381;-74
2023/06/09 09:11:12;;;;;;;;;17.67;17.67;;;;;;;;4967812;28;45899;-74
2023/06/09 09:13:38;;;;;;;;;13.00;13.00;;;;;;;;4980772;28;45758;-72
2023/06/09 09:16:03;;;;;;;;;20.00;18.33;;;;;;;;4989561;28;45668;-74
2023/06/09 09:18:34;;;;;;;;;20.33;20.33;;;;;;;;4963452;28;48495;-74
2023/06/09 09:21:00;;;;;;;;;19.00;19.00;;;;;;;;4968315;28;46144;-74
2023/06/09 09:23:30;;;;;;;;;15.33;13.67;;;;;;;;4978175;28;45486;-75
2023/06/09 09:25:55;;;;;;;;;17.67;17.67;;;;;;;;4971342;28;46655;-75
2023/06/09 09:28:21;;;;;;;;;18.33;16.33;;;;;;;;4980401;28;46304;-74
2023/06/09 09:30:55;;;;;;;;;13.67;13.67;;;;;;;;4964989;28;45626;-74
2023/06/09 09:33:22;;;;;;;;;20.67;19.33;;;;;;;;4971393;28;45690;-74
2023/06/09 09:35:49;;;;;;;;;19.00;18.67;;;;;;;;4972083;28;46063;-73
2023/06/09 09:38:18;;;;;;;;;17.67;15.33;;;;;;;;4966418;28;46417;-73
2023/06/09 09:40:45;;;;;;;;;19.00;17.00;;;;;;;;4986709;28;45739;-74
2023/06/09 09:43:10;;;;;;;;;18.00;15.00;;;;;;;;4972807;28;45915;-73
2023/06/09 09:45:38;;;;;;;;;22.33;19.00;;;;;;;;4979838;28;45377;-73
2023/06/09 09:48:10;;;;;;;;;19.33;17.33;;;;;;;;4973888;28;47051;-75
2023/06/09 09:50:36;;;;;;;;;20.00;20.00;;;;;;;;4973738;28;45497;-74
2023/06/09 09:53:03;;;;;;;;;17.33;16.33;;;;;;;;4978395;28;45433;-75
2023/06/09 09:55:28;;;;;;;;;16.00;16.00;;;;;;;;4980755;28;45768;-74
2023/06/09 09:57:54;;;;;;;;;16.67;15.67;;;;;;;;4988035;28;45573;-73
2023/06/09 10:00:19;;;;;;;;;16.67;16.67;;;;;;;;4987353;28;45430;-75
2023/06/09 10:02:47;;;;;;;;;19.00;17.67;;;;;;;;4970974;28;45439;-74
2023/06/09 10:05:14;;;;;;;;;18.00;18.00;;;;;;;;4959164;28;45894;-75
2023/06/09 10:07:42;;;;;;;;;16.67;16.67;;;;;;;;4985245;28;45359;-75
2023/06/09 10:10:08;;;;;;;;;17.67;16.33;;;;;;;;4976337;28;45917;-72
2023/06/09 10:12:36;;;;;;;;;16.67;15.00;;;;;;;;4969030;28;45613;-72
2023/06/09 10:15:02;;;;;;;;;18.00;18.00;;;;;;;;4968893;28;45934;-73
2023/06/09 10:17:28;;;;;;;;;15.33;15.33;;;;;;;;4970731;28;46182;-79
2023/06/09 10:19:53;;;;;;;;;16.33;14.67;;;;;;;;4973155;28;45378;-79
2023/06/09 10:22:19;;;;;;;;;18.33;17.33;;;;;;;;4981555;28;45638;-78
2023/06/09 10:24:46;;;;;;;;;19.00;16.67;;;;;;;;4968320;28;46135;-77
2023/06/09 10:27:13;;;;;;;;;23.00;19.67;;;;;;;;4968541;28;46153;-80
2023/06/09 10:29:38;;;;;;;;;16.33;15.67;;;;;;;;4959374;28;45810;-78
2023/06/09 10:32:04;;;;;;;;;15.33;14.33;;;;;;;;4965097;28;45832;-77
2023/06/09 10:34:32;;;;;;;;;16.00;16.00;;;;;;;;4960974;28;45532;-81
2023/06/09 10:36:58;;;;;;;;;15.67;15.67;;;;;;;;4984074;28;48441;-79
2023/06/09 10:39:26;;;;;;;;;17.33;16.00;;;;;;;;4969457;28;45601;-82
2023/06/09 10:41:51;;;;;;;;;17.67;17.67;;;;;;;;4966944;28;45736;-81
2023/06/09 10:44:26;;;;;;;;;18.00;18.00;;;;;;;;4960541;28;45850;-76
2023/06/09 10:46:53;;;;;;;;;17.33;15.00;;;;;;;;4962476;28;47277;-79
2023/06/09 10:49:39;;;;;;;;;17.00;13.67;;;;;;;;4962071;28;45577;-77
2023/06/09 10:52:05;;;;;;;;;16.00;16.00;;;;;;;;4962497;28;45558;-73
2023/06/09 10:54:32;;;;;;;;;16.00;16.00;;;;;;;;4963927;28;45884;-76
2023/06/09 10:56:57;;;;;;;;;16.00;14.00;;;;;;;;4963667;28;47940;-76
2023/06/09 10:59:25;;;;;;;;;17.33;17.33;;;;;;;;4967395;28;45806;-78
2023/06/09 11:02:02;;;;;;;;;14.00;14.00;;;;;;;;4963161;28;46541;-78
2023/06/09 11:05:00;;;;;;;;;11.33;10.33;;;;;;;;4963090;28;45589;-76
2023/06/09 11:07:29;;;;;;;;;20.67;16.67;;;;;;;;4962307;28;46486;-77
2023/06/09 11:09:57;;;;;;;;;13.33;13.33;;;;;;;;4958669;28;45450;-78
2023/06/09 11:12:49;;;;;;;;;14.33;14.33;;;;;;;;4962663;28;46077;-78
2023/06/09 11:15:15;;;;;;;;;15.67;15.33;;;;;;;;4959680;28;45427;-71
2023/06/09 11:17:45;;;;;;;;;15.33;14.33;;;;;;;;4957940;28;47880;-73
2023/06/09 11:20:10;;;;;;;;;20.33;18.67;;;;;;;;4959607;28;45826;-74
2023/06/09 11:22:41;;;;;;;;;14.67;14.67;;;;;;;;4960372;28;46675;-75
2023/06/09 11:25:08;;;;;;;;;15.00;13.33;;;;;;;;4960055;28;45757;-73
2023/06/09 11:27:33;;;;;;;;;16.33;14.67;;;;;;;;4957575;28;45517;-74
2023/06/09 11:30:06;;;;;;;;;17.00;15.00;;;;;;;;4957106;28;45494;-74
2023/06/09 11:32:47;;;;;;;;;15.33;11.67;;;;;;;;4959279;28;45786;-75
2023/06/09 11:35:27;;;;;;;;;15.00;15.00;;;;;;;;4962427;28;45476;-73
2023/06/09 11:37:53;;;;;;;;;17.67;16.67;;;;;;;;4956137;28;47368;-72
2023/06/09 11:40:19;;;;;;;;;17.00;14.67;;;;;;;;4983166;28;45704;-74
2023/06/09 11:42:47;;;;;;;;;12.67;12.67;;;;;;;;4969935;28;45629;-74
2023/06/09 11:45:13;;;;;;;;;16.33;14.33;;;;;;;;4960365;28;45329;-72
2023/06/09 11:47:43;;;;;;;;;14.00;13.67;;;;;;;;4966978;28;47219;-74
2023/06/09 11:50:11;;;;;;;;;13.33;13.33;;;;;;;;4964457;28;45986;-73
2023/06/09 11:52:37;;;;;;;;;14.67;14.67;;;;;;;;4971929;28;45661;-73
2023/06/09 11:55:04;;;;;;;;;12.67;11.67;;;;;;;;4960643;28;45787;-76
2023/06/09 11:57:30;;;;;;;;;14.33;14.33;;;;;;;;4960510;28;46427;-73
2023/06/09 11:59:55;;;;;;;;;12.33;12.33;;;;;;;;4962039;28;45435;-76
2023/06/09 12:02:20;;;;;;;;;16.67;13.67;;;;;;;;4959143;28;45826;-73
2023/06/09 12:04:47;;;;;;;;;18.00;15.67;;;;;;;;4965890;28;45369;-77
2023/06/09 12:07:15;;;;;;;;;16.00;16.00;;;;;;;;4963917;28;45786;-77
2023/06/09 12:09:42;;;;;;;;;16.67;13.33;;;;;;;;4964902;28;45956;-77
2023/06/09 12:12:07;;;;;;;;;16.33;14.67;;;;;;;;4965250;28;45802;-76
2023/06/09 12:14:33;;;;;;;;;16.33;15.33;;;;;;;;4954432;28;45933;-77
2023/06/09 12:16:58;;;;;;;;;13.33;13.33;;;;;;;;4957338;28;47494;-76
2023/06/09 12:19:23;;;;;;;;;15.00;14.33;;;;;;;;4958353;28;45810;-77
2023/06/09 12:21:48;;;;;;;;;15.67;14.33;;;;;;;;4962482;28;45831;-76
2023/06/09 12:24:14;;;;;;;;;15.67;15.67;;;;;;;;4963965;28;45872;-76
2023/06/09 12:26:47;;;;;;;;;13.67;13.33;;;;;;;;4962187;28;45728;-75
2023/06/09 12:29:13;;;;;;;;;16.33;14.67;;;;;;;;4962534;28;46114;-75
2023/06/09 12:31:49;;;;;;;;;13.00;13.00;;;;;;;;4965786;28;45768;-76
2023/06/09 12:34:21;;;;;;;;;15.67;15.67;;;;;;;;4960233;28;45752;-76
2023/06/09 12:36:47;;;;;;;;;15.67;14.67;;;;;;;;4960501;28;46074;-75
2023/06/09 12:39:20;;;;;;;;;17.67;14.33;;;;;;;;4950951;28;45748;-76
2023/06/09 12:41:45;;;;;;;;;14.67;12.67;;;;;;;;4970272;28;45723;-75
2023/06/09 12:44:18;;;;;;;;;14.00;14.00;;;;;;;;4968642;28;45762;-76
2023/06/09 12:46:44;;;;;;;;;13.33;13.33;;;;;;;;4964250;28;46410;-74
2023/06/09 12:49:10;;;;;;;;;12.33;12.33;;;;;;;;4954801;28;45867;-76
2023/06/09 12:51:45;;;;;;;;;14.33;12.67;;;;;;;;4953776;28;46690;-72
2023/06/09 12:54:13;;;;;;;;;14.00;13.67;;;;;;;;4957372;28;46002;-71
2023/06/09 12:56:38;;;;;;;;;12.33;12.33;;;;;;;;4954680;28;46284;-72
2023/06/09 12:59:04;;;;;;;;;17.00;16.33;;;;;;;;4954982;28;45736;-74
2023/06/09 13:01:32;;;;;;;;;15.67;15.00;;;;;;;;4961540;28;45862;-76
2023/06/09 13:03:57;;;;;;;;;15.33;14.33;;;;;;;;4956418;28;45958;-76
2023/06/09 13:06:23;;;;;;;;;15.67;14.67;;;;;;;;4959230;28;46692;-75
2023/06/09 13:08:48;;;;;;;;;11.67;11.67;;;;;;;;4958133;28;45787;-77
2023/06/09 13:11:13;;;;;;;;;11.67;9.00;;;;;;;;4957050;28;45393;-76
2023/06/09 13:13:39;;;;;;;;;14.67;13.00;;;;;;;;4969367;28;45364;-76
2023/06/09 13:16:05;;;;;;;;;12.67;12.67;;;;;;;;4966338;28;46068;-75
2023/06/09 13:18:30;;;;;;;;;15.00;14.00;;;;;;;;4956414;28;45945;-77
2023/06/09 13:20:55;;;;;;;;;12.00;12.00;;;;;;;;4954874;28;45865;-75
2023/06/09 13:23:20;;;;;;;;;11.67;11.67;;;;;;;;4959078;28;45407;-75
2023/06/09 13:25:46;;;;;;;;;12.33;12.33;;;;;;;;4954504;28;46027;-76
2023/06/09 13:28:11;;;;;;;;;14.67;14.67;;;;;;;;4961666;28;45573;-75
2023/06/09 13:30:38;;;;;;;;;15.00;10.67;;;;;;;;4962745;28;45523;-76
2023/06/09 13:33:03;;;;;;;;;13.33;13.33;;;;;;;;4967071;28;45549;-75
2023/06/09 13:35:30;;;;;;;;;10.67;10.67;;;;;;;;4979138;28;47869;-74
2023/06/09 13:37:56;;;;;;;;;9.00;9.00;;;;;;;;4971083;28;45642;-75
2023/06/09 13:40:21;;;;;;;;;12.33;12.33;;;;;;;;4964029;28;45889;-77
2023/06/09 13:42:52;;;;;;;;;10.67;10.67;;;;;;;;4967571;28;45765;-77
2023/06/09 13:45:17;;;;;;;;;14.33;11.33;;;;;;;;4977962;28;46121;-78
2023/06/09 13:47:43;;;;;;;;;11.00;11.00;;;;;;;;4985544;28;46618;-78
2023/06/09 13:50:08;;;;;;;;;13.67;12.67;;;;;;;;4974484;28;45774;-77
2023/06/09 13:52:34;;;;;;;;;13.67;13.67;;;;;;;;4978138;28;45819;-79
2023/06/09 13:55:00;;;;;;;;;17.67;14.67;;;;;;;;4973895;28;45741;-76
2023/06/09 13:57:25;;;;;;;;;11.33;10.33;;;;;;;;4979758;28;45445;-80
2023/06/09 13:59:50;;;;;;;;;14.67;12.33;;;;;;;;4982482;28;45763;-76
2023/06/09 14:02:15;;;;;;;;;12.67;12.33;;;;;;;;4977669;28;45888;-77
2023/06/09 14:04:41;;;;;;;;;10.67;10.67;;;;;;;;4962541;28;46581;-79
2023/06/09 14:07:06;;;;;;;;;14.33;12.33;;;;;;;;4983013;28;45355;-80
2023/06/09 14:09:31;;;;;;;;;12.33;12.33;;;;;;;;4984561;28;45518;-77
2023/06/09 14:11:56;;;;;;;;;11.33;11.00;;;;;;;;4974270;28;45566;-77
2023/06/09 14:14:22;;;;;;;;;11.67;10.67;;;;;;;;4965036;28;45618;-77
2023/06/09 14:16:47;;;;;;;;;11.67;11.00;;;;;;;;4976366;28;45587;-76
2023/06/09 14:19:12;;;;;;;;;12.67;12.67;;;;;;;;4987447;28;45919;-77
2023/06/09 14:21:38;;;;;;;;;14.67;14.67;;;;;;;;4984631;28;47036;-76
2023/06/09 14:24:03;;;;;;;;;11.33;10.67;;;;;;;;4958848;28;45312;-74
2023/06/09 14:26:28;;;;;;;;;12.67;12.67;;;;;;;;4966871;28;45655;-73
2023/06/09 14:28:55;;;;;;;;;16.67;14.33;;;;;;;;4980191;28;45790;-73
2023/06/09 14:31:20;;;;;;;;;12.00;12.00;;;;;;;;4962216;28;46084;-74